sensor_id;sensor_type;location;lat;lon;timestamp;pressure;altitude;pressure_sealevel;temperature;humidity
75627;BME280;67372;49.404;11.034;2023-12-20T00:01:37;98073.22;;;6.21;83.67
75627;BME280;67372;49.404;11.034;2023-12-20T00:04:05;98070.59;;;6.21;83.68
75627;BME280;67372;49.404;11.034;2023-12-20T00:06:32;98067.94;;;6.21;83.58
75627;BME280;67372;49.404;11.034;2023-12-20T00:08:58;98077.50;;;6.22;84.34
75627;BME280;67372;49.404;11.034;2023-12-20T00:11:25;98064.28;;;6.22;84.71
75627;BME280;67372;49.404;11.034;2023-12-20T00:13:51;98068.56;;;6.23;85.62
75627;BME280;67372;49.404;11.034;2023-12-20T00:16:18;98063.25;;;6.23;85.04
75627;BME280;67372;49.404;11.034;2023-12-20T00:18:44;98062.63;;;6.21;85.61
75627;BME280;67372;49.404;11.034;2023-12-20T00:21:11;98059.78;;;6.22;85.61
75627;BME280;67372;49.404;11.034;2023-12-20T00:23:38;98055.31;;;6.23;85.36
75627;BME280;67372;49.404;11.034;2023-12-20T00:26:04;98046.56;;;6.22;86.08
75627;BME280;67372;49.404;11.034;2023-12-20T00:28:30;98050.22;;;6.21;86.98
75627;BME280;67372;49.404;11.034;2023-12-20T00:30:57;98041.44;;;6.21;86.63
75627;BME280;67372;49.404;11.034;2023-12-20T00:33:23;98039.00;;;6.19;86.71
75627;BME280;67372;49.404;11.034;2023-12-20T00:35:50;98031.66;;;6.21;86.70
75627;BME280;67372;49.404;11.034;2023-12-20T00:38:16;98021.06;;;6.21;87.71
75627;BME280;67372;49.404;11.034;2023-12-20T00:40:43;98028.44;;;6.26;86.39
75627;BME280;67372;49.404;11.034;2023-12-20T00:43:09;98021.69;;;6.23;87.59
75627;BME280;67372;49.404;11.034;2023-12-20T00:45:35;98026.00;;;6.24;86.76
75627;BME280;67372;49.404;11.034;2023-12-20T00:48:02;98017.84;;;6.26;87.14
75627;BME280;67372;49.404;11.034;2023-12-20T00:50:28;98019.25;;;6.22;86.91
75627;BME280;67372;49.404;11.034;2023-12-20T00:52:56;98019.88;;;6.24;87.19
75627;BME280;67372;49.404;11.034;2023-12-20T00:55:22;98023.09;;;6.19;87.69
75627;BME280;67372;49.404;11.034;2023-12-20T00:57:48;98025.13;;;6.17;87.92
75627;BME280;67372;49.404;11.034;2023-12-20T01:00:15;98018.13;;;6.09;88.66
75627;BME280;67372;49.404;11.034;2023-12-20T01:02:41;98018.94;;;6.10;88.60
75627;BME280;67372;49.404;11.034;2023-12-20T01:05:08;98021.47;;;6.18;88.12
75627;BME280;67372;49.404;11.034;2023-12-20T01:07:35;98017.38;;;6.15;88.55
75627;BME280;67372;49.404;11.034;2023-12-20T01:10:01;98019.38;;;6.13;88.91
75627;BME280;67372;49.404;11.034;2023-12-20T01:12:27;98021.19;;;6.13;89.29
75627;BME280;67372;49.404;11.034;2023-12-20T01:14:54;98017.75;;;6.12;89.12
75627;BME280;67372;49.404;11.034;2023-12-20T01:17:20;98011.44;;;6.13;89.55
75627;BME280;67372;49.404;11.034;2023-12-20T01:19:47;98011.22;;;6.15;89.36
75627;BME280;67372;49.404;11.034;2023-12-20T01:22:13;98012.81;;;6.09;89.29
75627;BME280;67372;49.404;11.034;2023-12-20T01:24:39;98003.44;;;6.07;89.38
75627;BME280;67372;49.404;11.034;2023-12-20T01:27:06;98006.09;;;6.07;89.72
75627;BME280;67372;49.404;11.034;2023-12-20T01:29:32;97997.75;;;6.10;88.87
75627;BME280;67372;49.404;11.034;2023-12-20T01:31:59;97996.75;;;6.11;89.03
75627;BME280;67372;49.404;11.034;2023-12-20T01:34:25;97996.75;;;6.11;89.34
75627;BME280;67372;49.404;11.034;2023-12-20T01:36:52;98006.53;;;6.10;89.56
75627;BME280;67372;49.404;11.034;2023-12-20T01:39:18;97995.94;;;6.10;89.61
75627;BME280;67372;49.404;11.034;2023-12-20T01:41:55;97985.31;;;6.04;90.04
75627;BME280;67372;49.404;11.034;2023-12-20T01:44:21;97992.66;;;6.08;88.73
75627;BME280;67372;49.404;11.034;2023-12-20T01:46:48;97986.31;;;6.03;89.19
75627;BME280;67372;49.404;11.034;2023-12-20T01:49:15;97992.22;;;6.05;89.08
75627;BME280;67372;49.404;11.034;2023-12-20T01:51:42;97991.84;;;6.08;88.21
75627;BME280;67372;49.404;11.034;2023-12-20T01:54:09;97989.97;;;6.02;88.95
75627;BME280;67372;49.404;11.034;2023-12-20T01:56:35;97984.47;;;6.03;88.60
75627;BME280;67372;49.404;11.034;2023-12-20T01:59:02;97985.50;;;6.02;88.19
75627;BME280;67372;49.404;11.034;2023-12-20T02:01:29;97988.91;;;5.96;89.00
75627;BME280;67372;49.404;11.034;2023-12-20T02:03:56;97976.69;;;5.95;88.91
75627;BME280;67372;49.404;11.034;2023-12-20T02:06:24;97985.84;;;5.93;89.13
75627;BME280;67372;49.404;11.034;2023-12-20T02:08:55;97986.91;;;5.98;88.38
75627;BME280;67372;49.404;11.034;2023-12-20T02:11:22;97988.50;;;5.93;88.54
75627;BME280;67372;49.404;11.034;2023-12-20T02:13:48;97991.28;;;5.91;88.63
75627;BME280;67372;49.404;11.034;2023-12-20T02:16:14;97986.31;;;5.81;88.83
75627;BME280;67372;49.404;11.034;2023-12-20T02:18:43;97980.63;;;5.84;88.86
75627;BME280;67372;49.404;11.034;2023-12-20T02:21:10;97970.81;;;5.78;88.46
75627;BME280;67372;49.404;11.034;2023-12-20T02:23:36;97980.78;;;5.76;88.44
75627;BME280;67372;49.404;11.034;2023-12-20T02:26:03;97974.25;;;5.72;88.50
75627;BME280;67372;49.404;11.034;2023-12-20T02:28:31;97972.59;;;5.71;88.82
75627;BME280;67372;49.404;11.034;2023-12-20T02:30:58;97973.28;;;5.59;87.38
75627;BME280;67372;49.404;11.034;2023-12-20T02:33:25;97983.44;;;5.55;88.32
75627;BME280;67372;49.404;11.034;2023-12-20T02:35:51;97978.53;;;5.52;87.40
75627;BME280;67372;49.404;11.034;2023-12-20T02:38:17;97978.22;;;5.40;88.32
75627;BME280;67372;49.404;11.034;2023-12-20T02:40:44;97976.19;;;5.42;89.33
75627;BME280;67372;49.404;11.034;2023-12-20T02:43:15;97974.75;;;5.40;89.36
75627;BME280;67372;49.404;11.034;2023-12-20T02:45:42;97976.75;;;5.38;90.33
75627;BME280;67372;49.404;11.034;2023-12-20T02:48:08;97973.50;;;5.36;90.41
75627;BME280;67372;49.404;11.034;2023-12-20T02:50:35;97980.59;;;5.35;88.77
75627;BME280;67372;49.404;11.034;2023-12-20T02:53:01;97987.66;;;5.28;87.98
75627;BME280;67372;49.404;11.034;2023-12-20T02:55:28;97987.47;;;5.30;88.59
75627;BME280;67372;49.404;11.034;2023-12-20T02:57:54;97978.38;;;5.17;88.23
75627;BME280;67372;49.404;11.034;2023-12-20T03:00:20;97991.97;;;5.14;87.97
75627;BME280;67372;49.404;11.034;2023-12-20T03:02:47;97990.97;;;5.15;88.26
75627;BME280;67372;49.404;11.034;2023-12-20T03:05:13;97987.00;;;5.05;89.36
75627;BME280;67372;49.404;11.034;2023-12-20T03:07:40;97980.28;;;5.02;89.50
75627;BME280;67372;49.404;11.034;2023-12-20T03:10:06;97973.25;;;4.94;89.64
75627;BME280;67372;49.404;11.034;2023-12-20T03:12:45;97970.78;;;4.93;89.84
75627;BME280;67372;49.404;11.034;2023-12-20T03:15:12;97975.44;;;4.91;88.59
75627;BME280;67372;49.404;11.034;2023-12-20T03:17:38;97970.97;;;4.91;89.28
75627;BME280;67372;49.404;11.034;2023-12-20T03:20:05;97976.19;;;4.85;89.61
75627;BME280;67372;49.404;11.034;2023-12-20T03:22:32;97974.81;;;4.89;89.32
75627;BME280;67372;49.404;11.034;2023-12-20T03:24:58;97987.22;;;4.88;88.51
75627;BME280;67372;49.404;11.034;2023-12-20T03:27:25;97986.13;;;4.83;88.73
75627;BME280;67372;49.404;11.034;2023-12-20T03:29:51;97981.03;;;4.81;88.33
75627;BME280;67372;49.404;11.034;2023-12-20T03:32:17;97973.50;;;4.78;89.48
75627;BME280;67372;49.404;11.034;2023-12-20T03:34:44;97980.31;;;4.73;88.81
75627;BME280;67372;49.404;11.034;2023-12-20T03:37:10;97976.41;;;4.69;89.95
75627;BME280;67372;49.404;11.034;2023-12-20T03:39:37;97978.66;;;4.72;89.52
75627;BME280;67372;49.404;11.034;2023-12-20T03:42:03;97979.03;;;4.69;89.78
75627;BME280;67372;49.404;11.034;2023-12-20T03:44:30;97976.59;;;4.67;90.43
75627;BME280;67372;49.404;11.034;2023-12-20T03:46:56;97987.72;;;4.62;90.33
75627;BME280;67372;49.404;11.034;2023-12-20T03:49:23;97991.63;;;4.67;90.51
75627;BME280;67372;49.404;11.034;2023-12-20T03:51:49;97989.16;;;4.65;89.86
75627;BME280;67372;49.404;11.034;2023-12-20T03:54:15;97983.63;;;4.60;90.99
75627;BME280;67372;49.404;11.034;2023-12-20T03:56:42;97987.72;;;4.62;91.38
75627;BME280;67372;49.404;11.034;2023-12-20T03:59:08;97991.16;;;4.63;91.39
75627;BME280;67372;49.404;11.034;2023-12-20T04:01:35;97989.72;;;4.60;91.30
75627;BME280;67372;49.404;11.034;2023-12-20T04:04:01;97983.25;;;4.63;91.05
75627;BME280;67372;49.404;11.034;2023-12-20T04:06:28;97978.97;;;4.62;90.29
75627;BME280;67372;49.404;11.034;2023-12-20T04:08:54;97985.44;;;4.59;90.53
75627;BME280;67372;49.404;11.034;2023-12-20T04:11:20;97987.06;;;4.60;89.88
75627;BME280;67372;49.404;11.034;2023-12-20T04:13:47;97989.72;;;4.60;90.71
75627;BME280;67372;49.404;11.034;2023-12-20T04:16:13;97991.81;;;4.65;90.10
75627;BME280;67372;49.404;11.034;2023-12-20T04:18:40;97985.69;;;4.65;89.84
75627;BME280;67372;49.404;11.034;2023-12-20T04:21:06;97987.34;;;4.66;89.56
75627;BME280;67372;49.404;11.034;2023-12-20T04:23:33;97989.34;;;4.63;90.54
75627;BME280;67372;49.404;11.034;2023-12-20T04:25:59;97990.34;;;4.62;90.33
75627;BME280;67372;49.404;11.034;2023-12-20T04:28:25;97986.72;;;4.63;90.32
75627;BME280;67372;49.404;11.034;2023-12-20T04:30:52;97992.63;;;4.66;90.09
75627;BME280;67372;49.404;11.034;2023-12-20T04:33:18;97980.22;;;4.66;89.50
75627;BME280;67372;49.404;11.034;2023-12-20T04:35:45;97985.13;;;4.69;90.04
75627;BME280;67372;49.404;11.034;2023-12-20T04:38:11;97986.16;;;4.68;90.89
75627;BME280;67372;49.404;11.034;2023-12-20T04:40:38;97984.78;;;4.72;89.73
75627;BME280;67372;49.404;11.034;2023-12-20T04:43:04;97992.69;;;4.72;89.22
75627;BME280;67372;49.404;11.034;2023-12-20T04:45:30;97992.69;;;4.72;89.32
75627;BME280;67372;49.404;11.034;2023-12-20T04:47:57;97991.88;;;4.72;90.27
75627;BME280;67372;49.404;11.034;2023-12-20T04:50:23;97993.50;;;4.73;89.74
75627;BME280;67372;49.404;11.034;2023-12-20T04:52:50;97991.53;;;4.75;89.13
75627;BME280;67372;49.404;11.034;2023-12-20T04:55:16;97989.22;;;4.72;90.20
75627;BME280;67372;49.404;11.034;2023-12-20T04:57:43;97999.16;;;4.70;90.03
75627;BME280;67372;49.404;11.034;2023-12-20T05:00:10;97990.97;;;4.65;90.56
75627;BME280;67372;49.404;11.034;2023-12-20T05:02:37;97996.81;;;4.60;89.75
75627;BME280;67372;49.404;11.034;2023-12-20T05:05:04;97998.66;;;4.59;90.54
75627;BME280;67372;49.404;11.034;2023-12-20T05:07:30;98007.56;;;4.58;90.25
75627;BME280;67372;49.404;11.034;2023-12-20T05:09:57;98011.22;;;4.57;90.40
75627;BME280;67372;49.404;11.034;2023-12-20T05:12:23;98013.22;;;4.55;90.71
75627;BME280;67372;49.404;11.034;2023-12-20T05:14:51;98020.22;;;4.48;91.35
75627;BME280;67372;49.404;11.034;2023-12-20T05:17:18;98011.97;;;4.51;90.17
75627;BME280;67372;49.404;11.034;2023-12-20T05:19:44;98025.63;;;4.55;90.50
75627;BME280;67372;49.404;11.034;2023-12-20T05:22:10;98027.81;;;4.51;89.96
75627;BME280;67372;49.404;11.034;2023-12-20T05:24:37;98027.25;;;4.56;89.73
75627;BME280;67372;49.404;11.034;2023-12-20T05:27:04;98029.91;;;4.56;91.08
75627;BME280;67372;49.404;11.034;2023-12-20T05:29:31;98034.53;;;4.54;89.70
75627;BME280;67372;49.404;11.034;2023-12-20T05:31:58;98040.91;;;4.59;90.01
75627;BME280;67372;49.404;11.034;2023-12-20T05:34:24;98037.63;;;4.57;89.95
75627;BME280;67372;49.404;11.034;2023-12-20T05:36:51;98037.38;;;4.52;90.34
75627;BME280;67372;49.404;11.034;2023-12-20T05:39:17;98040.81;;;4.53;90.47
75627;BME280;67372;49.404;11.034;2023-12-20T05:41:43;98037.88;;;4.48;91.04
75627;BME280;67372;49.404;11.034;2023-12-20T05:44:10;98051.75;;;4.50;91.21
75627;BME280;67372;49.404;11.034;2023-12-20T05:46:36;98040.63;;;4.54;90.73
75627;BME280;67372;49.404;11.034;2023-12-20T05:49:03;98043.28;;;4.54;89.86
75627;BME280;67372;49.404;11.034;2023-12-20T05:51:29;98049.38;;;4.55;89.71
75627;BME280;67372;49.404;11.034;2023-12-20T05:53:55;98058.81;;;4.49;90.36
75627;BME280;67372;49.404;11.034;2023-12-20T05:56:22;98052.72;;;4.49;90.41
75627;BME280;67372;49.404;11.034;2023-12-20T05:58:48;98050.56;;;4.52;90.35
75627;BME280;67372;49.404;11.034;2023-12-20T06:01:15;98052.03;;;4.55;89.58
75627;BME280;67372;49.404;11.034;2023-12-20T06:03:41;98055.31;;;4.57;90.39
75627;BME280;67372;49.404;11.034;2023-12-20T06:06:09;98062.22;;;4.58;90.30
75627;BME280;67372;49.404;11.034;2023-12-20T06:08:42;98068.41;;;4.50;90.30
75627;BME280;67372;49.404;11.034;2023-12-20T06:11:08;98063.13;;;4.50;91.29
75627;BME280;67372;49.404;11.034;2023-12-20T06:13:35;98069.06;;;4.52;90.29
75627;BME280;67372;49.404;11.034;2023-12-20T06:16:01;98064.41;;;4.54;91.47
75627;BME280;67372;49.404;11.034;2023-12-20T06:18:28;98074.16;;;4.54;91.61
75627;BME280;67372;49.404;11.034;2023-12-20T06:21:18;98071.16;;;4.57;90.74
75627;BME280;67372;49.404;11.034;2023-12-20T06:23:44;98082.72;;;4.56;91.12
75627;BME280;67372;49.404;11.034;2023-12-20T06:26:16;98083.91;;;4.53;91.03
75627;BME280;67372;49.404;11.034;2023-12-20T06:28:43;98089.19;;;4.53;91.35
75627;BME280;67372;49.404;11.034;2023-12-20T06:31:09;98086.91;;;4.50;91.70
75627;BME280;67372;49.404;11.034;2023-12-20T06:33:36;98092.91;;;4.59;91.45
75627;BME280;67372;49.404;11.034;2023-12-20T06:36:02;98095.09;;;4.70;91.86
75627;BME280;67372;49.404;11.034;2023-12-20T06:38:29;98097.66;;;4.78;91.14
75627;BME280;67372;49.404;11.034;2023-12-20T06:40:55;98089.94;;;4.77;91.69
75627;BME280;67372;49.404;11.034;2023-12-20T06:43:21;98095.66;;;4.80;91.68
75627;BME280;67372;49.404;11.034;2023-12-20T06:46:08;98097.56;;;4.86;90.88
75627;BME280;67372;49.404;11.034;2023-12-20T06:48:34;98100.84;;;4.88;90.30
75627;BME280;67372;49.404;11.034;2023-12-20T06:51:01;98108.97;;;4.87;91.12
75627;BME280;67372;49.404;11.034;2023-12-20T06:53:28;98109.69;;;4.81;92.25
75627;BME280;67372;49.404;11.034;2023-12-20T06:55:54;98106.50;;;4.85;91.07
75627;BME280;67372;49.404;11.034;2023-12-20T06:58:21;98112.44;;;4.87;93.64
75627;BME280;67372;49.404;11.034;2023-12-20T07:00:48;98112.88;;;4.91;92.26
75627;BME280;67372;49.404;11.034;2023-12-20T07:03:15;98117.97;;;4.92;92.42
75627;BME280;67372;49.404;11.034;2023-12-20T07:05:41;98123.44;;;4.91;92.36
75627;BME280;67372;49.404;11.034;2023-12-20T07:08:07;98137.66;;;4.90;91.21
75627;BME280;67372;49.404;11.034;2023-12-20T07:10:34;98144.50;;;4.84;92.80
75627;BME280;67372;49.404;11.034;2023-12-20T07:13:00;98152.06;;;4.87;92.64
75627;BME280;67372;49.404;11.034;2023-12-20T07:15:27;98150.41;;;4.86;93.25
75627;BME280;67372;49.404;11.034;2023-12-20T07:17:53;98156.72;;;5.00;92.35
75627;BME280;67372;49.404;11.034;2023-12-20T07:20:20;98162.84;;;5.01;91.39
75627;BME280;67372;49.404;11.034;2023-12-20T07:22:47;98173.41;;;5.01;91.77
75627;BME280;67372;49.404;11.034;2023-12-20T07:25:13;98173.69;;;5.06;91.33
75627;BME280;67372;49.404;11.034;2023-12-20T07:27:40;98173.31;;;5.09;90.46
75627;BME280;67372;49.404;11.034;2023-12-20T07:30:09;98183.25;;;5.07;91.21
75627;BME280;67372;49.404;11.034;2023-12-20T07:32:36;98174.31;;;5.08;91.91
75627;BME280;67372;49.404;11.034;2023-12-20T07:35:03;98178.50;;;5.02;92.02
75627;BME280;67372;49.404;11.034;2023-12-20T07:37:29;98178.69;;;5.01;92.09
75627;BME280;67372;49.404;11.034;2023-12-20T07:39:56;98178.34;;;5.04;92.26
75627;BME280;67372;49.404;11.034;2023-12-20T07:42:23;98170.59;;;5.02;92.30
75627;BME280;67372;49.404;11.034;2023-12-20T07:44:49;98177.69;;;5.02;92.36
75627;BME280;67372;49.404;11.034;2023-12-20T07:47:15;98181.16;;;5.02;92.13
75627;BME280;67372;49.404;11.034;2023-12-20T07:49:42;98184.63;;;5.03;91.96
75627;BME280;67372;49.404;11.034;2023-12-20T07:52:08;98178.59;;;5.09;92.00
75627;BME280;67372;49.404;11.034;2023-12-20T07:54:35;98185.53;;;5.10;92.40
75627;BME280;67372;49.404;11.034;2023-12-20T07:57:01;98182.44;;;5.06;92.68
75627;BME280;67372;49.404;11.034;2023-12-20T07:59:28;98188.53;;;5.07;93.20
75627;BME280;67372;49.404;11.034;2023-12-20T08:01:58;98190.38;;;5.06;93.52
75627;BME280;67372;49.404;11.034;2023-12-20T08:04:25;98202.56;;;5.07;93.35
75627;BME280;67372;49.404;11.034;2023-12-20T08:55:27;98195.72;;;5.72;85.18
75627;BME280;67372;49.404;11.034;2023-12-20T09:03:45;98199.69;;;5.82;81.67
75627;BME280;67372;49.404;11.034;2023-12-20T09:06:12;98191.38;;;5.85;79.98
75627;BME280;67372;49.404;11.034;2023-12-20T09:57:12;98218.16;;;5.61;78.20
75627;BME280;67372;49.404;11.034;2023-12-20T09:59:38;98216.34;;;5.62;78.69
75627;BME280;67372;49.404;11.034;2023-12-20T10:02:12;98214.75;;;5.67;76.65
75627;BME280;67372;49.404;11.034;2023-12-20T10:04:43;98211.66;;;5.78;76.45
75627;BME280;67372;49.404;11.034;2023-12-20T10:07:12;98203.34;;;5.81;75.91
75627;BME280;67372;49.404;11.034;2023-12-20T10:09:38;98203.59;;;5.86;76.21
75627;BME280;67372;49.404;11.034;2023-12-20T10:12:05;98206.06;;;5.88;76.19
75627;BME280;67372;49.404;11.034;2023-12-20T10:14:32;98209.22;;;5.92;75.19
75627;BME280;67372;49.404;11.034;2023-12-20T10:17:03;98207.69;;;6.04;74.36
75627;BME280;67372;49.404;11.034;2023-12-20T10:19:30;98195.63;;;6.16;73.05
75627;BME280;67372;49.404;11.034;2023-12-20T10:21:58;98197.31;;;6.24;72.89
75627;BME280;67372;49.404;11.034;2023-12-20T10:24:25;98185.66;;;6.18;72.69
75627;BME280;67372;49.404;11.034;2023-12-20T10:27:03;98189.25;;;6.32;71.11
75627;BME280;67372;49.404;11.034;2023-12-20T10:29:34;98196.00;;;6.34;70.85
75627;BME280;67372;49.404;11.034;2023-12-20T10:32:23;98197.09;;;6.40;71.26
75627;BME280;67372;49.404;11.034;2023-12-20T10:34:52;98196.13;;;6.47;71.88
75627;BME280;67372;49.404;11.034;2023-12-20T10:37:19;98189.75;;;6.42;71.76
75627;BME280;67372;49.404;11.034;2023-12-20T10:39:50;98192.41;;;6.42;70.96
75627;BME280;67372;49.404;11.034;2023-12-20T10:42:21;98190.19;;;6.45;72.00
75627;BME280;67372;49.404;11.034;2023-12-20T10:44:48;98182.69;;;6.49;71.50
75627;BME280;67372;49.404;11.034;2023-12-20T10:47:16;98184.38;;;6.57;71.64
75627;BME280;67372;49.404;11.034;2023-12-20T10:49:44;98183.16;;;6.59;71.03
75627;BME280;67372;49.404;11.034;2023-12-20T10:52:12;98179.50;;;6.60;71.63
75627;BME280;67372;49.404;11.034;2023-12-20T10:54:42;98172.44;;;6.67;71.53
75627;BME280;67372;49.404;11.034;2023-12-20T10:57:08;98169.41;;;6.70;71.23
75627;BME280;67372;49.404;11.034;2023-12-20T10:59:39;98171.28;;;6.76;71.20
75627;BME280;67372;49.404;11.034;2023-12-20T11:02:05;98172.09;;;6.77;70.65
75627;BME280;67372;49.404;11.034;2023-12-20T11:04:56;98169.59;;;6.69;71.01
75627;BME280;67372;49.404;11.034;2023-12-20T11:07:32;98160.91;;;6.54;71.70
75627;BME280;67372;49.404;11.034;2023-12-20T11:10:12;98173.34;;;6.53;71.87
75627;BME280;67372;49.404;11.034;2023-12-20T11:12:47;98160.91;;;6.54;70.82
75627;BME280;67372;49.404;11.034;2023-12-20T11:15:15;98159.50;;;6.58;71.37
75627;BME280;67372;49.404;11.034;2023-12-20T11:17:44;98158.75;;;6.64;70.87
75627;BME280;67372;49.404;11.034;2023-12-20T11:20:14;98156.97;;;6.43;72.82
75627;BME280;67372;49.404;11.034;2023-12-20T11:22:52;98165.09;;;6.41;73.44
75627;BME280;67372;49.404;11.034;2023-12-20T11:25:19;98159.03;;;6.47;72.98
75627;BME280;67372;49.404;11.034;2023-12-20T11:28:09;98164.75;;;6.51;72.77
75627;BME280;67372;49.404;11.034;2023-12-20T11:30:46;98161.25;;;6.44;75.21
75627;BME280;67372;49.404;11.034;2023-12-20T11:33:14;98162.63;;;6.40;75.62
75627;BME280;67372;49.404;11.034;2023-12-20T11:35:41;98155.03;;;6.37;74.47
75627;BME280;67372;49.404;11.034;2023-12-20T11:38:09;98140.56;;;6.33;75.71
75627;BME280;67372;49.404;11.034;2023-12-20T11:40:36;98142.56;;;6.31;76.03
75627;BME280;67372;49.404;11.034;2023-12-20T11:43:04;98129.47;;;6.23;75.67
75627;BME280;67372;49.404;11.034;2023-12-20T11:45:30;98134.16;;;6.21;76.46
75627;BME280;67372;49.404;11.034;2023-12-20T11:47:57;98135.44;;;6.10;75.79
75627;BME280;67372;49.404;11.034;2023-12-20T11:50:25;98138.69;;;6.05;76.99
75627;BME280;67372;49.404;11.034;2023-12-20T11:52:52;98134.81;;;6.29;75.18
75627;BME280;67372;49.404;11.034;2023-12-20T11:55:19;98122.00;;;6.33;75.38
75627;BME280;67372;49.404;11.034;2023-12-20T11:57:46;98127.22;;;6.47;74.46
75627;BME280;67372;49.404;11.034;2023-12-20T12:00:14;98120.59;;;6.37;73.97
75627;BME280;67372;49.404;11.034;2023-12-20T12:02:41;98117.75;;;6.38;74.38
75627;BME280;67372;49.404;11.034;2023-12-20T12:05:07;98121.50;;;6.44;74.03
75627;BME280;67372;49.404;11.034;2023-12-20T12:07:35;98133.50;;;6.40;74.58
75627;BME280;67372;49.404;11.034;2023-12-20T12:10:02;98130.38;;;6.36;74.76
75627;BME280;67372;49.404;11.034;2023-12-20T12:12:32;98123.03;;;6.32;74.17
75627;BME280;67372;49.404;11.034;2023-12-20T12:14:59;98126.56;;;6.39;73.69
75627;BME280;67372;49.404;11.034;2023-12-20T12:17:25;98127.69;;;6.30;74.31
75627;BME280;67372;49.404;11.034;2023-12-20T12:20:02;98120.56;;;6.30;73.47
75627;BME280;67372;49.404;11.034;2023-12-20T12:22:29;98124.53;;;6.41;72.89
75627;BME280;67372;49.404;11.034;2023-12-20T12:24:59;98132.84;;;6.38;72.95
75627;BME280;67372;49.404;11.034;2023-12-20T12:27:25;98124.53;;;6.41;72.51
75627;BME280;67372;49.404;11.034;2023-12-20T12:30:03;98130.06;;;6.46;72.93
75627;BME280;67372;49.404;11.034;2023-12-20T12:32:30;98123.06;;;6.38;73.74
75627;BME280;67372;49.404;11.034;2023-12-20T12:34:57;98114.44;;;6.30;75.02
75627;BME280;67372;49.404;11.034;2023-12-20T12:37:23;98118.78;;;6.37;74.63
75627;BME280;67372;49.404;11.034;2023-12-20T12:39:53;98118.63;;;6.39;74.73
75627;BME280;67372;49.404;11.034;2023-12-20T12:42:19;98119.34;;;6.33;75.51
75627;BME280;67372;49.404;11.034;2023-12-20T12:44:46;98109.06;;;6.44;74.64
75627;BME280;67372;49.404;11.034;2023-12-20T12:47:12;98120.09;;;6.48;74.13
75627;BME280;67372;49.404;11.034;2023-12-20T12:49:40;98120.25;;;6.40;74.88
75627;BME280;67372;49.404;11.034;2023-12-20T12:52:07;98109.28;;;6.43;74.64
75627;BME280;67372;49.404;11.034;2023-12-20T12:54:33;98116.50;;;6.34;74.69
75627;BME280;67372;49.404;11.034;2023-12-20T12:57:00;98113.16;;;6.47;73.95
75627;BME280;67372;49.404;11.034;2023-12-20T12:59:26;98118.28;;;6.49;73.54
75627;BME280;67372;49.404;11.034;2023-12-20T13:01:53;98113.97;;;6.47;73.34
75627;BME280;67372;49.404;11.034;2023-12-20T13:04:19;98115.84;;;6.54;72.98
75627;BME280;67372;49.404;11.034;2023-12-20T13:06:46;98109.75;;;6.53;73.21
75627;BME280;67372;49.404;11.034;2023-12-20T13:09:12;98119.66;;;6.44;73.27
75627;BME280;67372;49.404;11.034;2023-12-20T13:11:39;98112.38;;;6.53;73.32
75627;BME280;67372;49.404;11.034;2023-12-20T13:14:05;98119.53;;;6.53;72.96
75627;BME280;67372;49.404;11.034;2023-12-20T13:16:31;98118.31;;;6.55;73.13
75627;BME280;67372;49.404;11.034;2023-12-20T13:18:58;98105.66;;;6.51;72.60
75627;BME280;67372;49.404;11.034;2023-12-20T13:21:25;98112.47;;;6.38;73.42
75627;BME280;67372;49.404;11.034;2023-12-20T13:23:51;98123.41;;;6.29;74.44
75627;BME280;67372;49.404;11.034;2023-12-20T13:26:18;98119.50;;;6.25;74.16
75627;BME280;67372;49.404;11.034;2023-12-20T13:28:44;98116.41;;;6.21;73.41
75627;BME280;67372;49.404;11.034;2023-12-20T13:31:11;98112.81;;;6.29;72.29
75627;BME280;67372;49.404;11.034;2023-12-20T13:33:37;98124.59;;;6.26;72.96
75627;BME280;67372;49.404;11.034;2023-12-20T13:36:04;98117.81;;;6.17;74.17
75627;BME280;67372;49.404;11.034;2023-12-20T13:38:33;98112.25;;;6.12;74.13
75627;BME280;67372;49.404;11.034;2023-12-20T13:41:01;98118.56;;;6.11;72.90
75627;BME280;67372;49.404;11.034;2023-12-20T13:43:27;98111.13;;;6.00;73.80
75627;BME280;67372;49.404;11.034;2023-12-20T13:45:54;98117.88;;;6.02;72.64
75627;BME280;67372;49.404;11.034;2023-12-20T13:48:20;98113.59;;;6.01;73.57
75627;BME280;67372;49.404;11.034;2023-12-20T13:50:46;98114.72;;;5.92;74.26
75627;BME280;67372;49.404;11.034;2023-12-20T13:53:13;98122.91;;;5.97;73.63
75627;BME280;67372;49.404;11.034;2023-12-20T13:55:40;98120.03;;;5.92;74.87
75627;BME280;67372;49.404;11.034;2023-12-20T13:58:06;98116.06;;;5.88;73.65
75627;BME280;67372;49.404;11.034;2023-12-20T14:00:33;98108.44;;;5.78;74.14
75627;BME280;67372;49.404;11.034;2023-12-20T14:03:00;98108.25;;;5.80;74.04
75627;BME280;67372;49.404;11.034;2023-12-20T14:05:27;98105.31;;;5.90;74.01
75627;BME280;67372;49.404;11.034;2023-12-20T14:07:55;98112.41;;;5.89;72.53
75627;BME280;67372;49.404;11.034;2023-12-20T14:10:21;98116.56;;;5.92;73.15
75627;BME280;67372;49.404;11.034;2023-12-20T14:12:48;98110.53;;;5.83;73.82
75627;BME280;67372;49.404;11.034;2023-12-20T14:15:16;98111.72;;;5.80;73.78
75627;BME280;67372;49.404;11.034;2023-12-20T14:17:44;98123.13;;;5.81;74.15
75627;BME280;67372;49.404;11.034;2023-12-20T14:20:11;98119.28;;;5.83;74.29
75627;BME280;67372;49.404;11.034;2023-12-20T14:22:38;98106.88;;;5.84;73.54
75627;BME280;67372;49.404;11.034;2023-12-20T14:25:05;98109.84;;;5.74;75.12
75627;BME280;67372;49.404;11.034;2023-12-20T14:27:32;98112.66;;;5.73;75.28
75627;BME280;67372;49.404;11.034;2023-12-20T14:29:58;98101.06;;;5.74;74.36
75627;BME280;67372;49.404;11.034;2023-12-20T14:32:25;98091.59;;;5.65;74.69
75627;BME280;67372;49.404;11.034;2023-12-20T14:34:51;98093.63;;;5.63;76.15
75627;BME280;67372;49.404;11.034;2023-12-20T14:37:18;98087.06;;;5.59;75.86
75627;BME280;67372;49.404;11.034;2023-12-20T14:39:44;98080.38;;;5.63;74.33
75627;BME280;67372;49.404;11.034;2023-12-20T14:42:11;98081.63;;;5.67;75.33
75627;BME280;67372;49.404;11.034;2023-12-20T14:44:38;98069.94;;;5.54;75.65